Time;durP1;ratioP1;P1;durP2;ratioP2;P2;SDS_P1;SDS_P2;PMS_P1;PMS_P2;Temp;Humidity;BMP_temperature;BMP_pressure;BME280_temperature;BME280_humidity;BME280_pressure;Samples;Min_cycle;Max_cycle;Signal;HPM_P1;HPM_P2
2023/03/20 05:02:33;;;;;;;4.95;4.00;;;9.40;99.90;;;;;;4918223;23;20247;-68
2023/03/20 05:05:00;;;;;;;8.90;4.30;;;9.40;99.90;;;;;;4873644;29;20776;-68
2023/03/20 05:07:26;;;;;;;3.97;2.67;;;9.40;99.90;;;;;;4874502;29;20623;-68
2023/03/20 05:09:53;;;;;;;2.40;2.20;;;9.30;99.90;;;;;;4876509;29;20240;-68
2023/03/20 05:12:20;;;;;;;7.35;4.22;;;9.30;99.90;;;;;;4877609;29;20318;-67
2023/03/20 05:14:46;;;;;;;5.65;2.22;;;9.30;99.90;;;;;;4872393;29;20232;-67
2023/03/20 05:17:13;;;;;;;8.98;2.30;;;9.30;99.90;;;;;;4875062;29;20296;-68
2023/03/20 05:19:41;;;;;;;5.28;3.53;;;9.30;99.90;;;;;;4889471;29;20583;-69
2023/03/20 05:22:08;;;;;;;2.75;2.38;;;9.20;99.90;;;;;;4891665;29;20246;-68
2023/03/20 05:24:35;;;;;;;1.42;1.33;;;9.20;99.90;;;;;;4880759;29;20218;-68
2023/03/20 05:27:02;;;;;;;4.10;2.22;;;9.20;99.90;;;;;;4887717;29;20204;-68
2023/03/20 05:29:28;;;;;;;6.00;2.67;;;9.20;99.90;;;;;;4888221;29;20238;-69
2023/03/20 05:31:55;;;;;;;2.78;2.10;;;9.20;99.90;;;;;;4882112;29;20251;-69
2023/03/20 05:34:22;;;;;;;3.20;1.35;;;9.20;99.90;;;;;;4876948;29;20216;-68
2023/03/20 05:36:50;;;;;;;8.35;3.78;;;9.20;99.90;;;;;;4881245;29;20215;-69
2023/03/20 05:39:17;;;;;;;3.45;2.75;;;9.20;99.90;;;;;;4885262;29;20655;-68
2023/03/20 05:41:44;;;;;;;3.95;2.55;;;9.20;99.90;;;;;;4877996;29;20250;-69
2023/03/20 05:44:10;;;;;;;2.78;2.65;;;9.20;99.90;;;;;;4871343;29;20213;-68
2023/03/20 05:46:37;;;;;;;2.13;2.03;;;9.20;99.90;;;;;;4876389;29;20212;-69
2023/03/20 05:49:04;;;;;;;1.55;1.55;;;9.20;99.90;;;;;;4885278;29;20228;-68
2023/03/20 05:51:31;;;;;;;3.47;3.13;;;9.20;99.90;;;;;;4878404;29;20236;-69
2023/03/20 05:53:59;;;;;;;3.45;2.75;;;9.20;99.90;;;;;;4876338;29;20208;-68
2023/03/20 05:56:26;;;;;;;6.32;2.40;;;9.20;99.90;;;;;;4886125;29;20332;-68
2023/03/20 05:58:52;;;;;;;2.47;1.77;;;9.20;99.90;;;;;;4878612;29;20222;-68
2023/03/20 06:01:20;;;;;;;1.85;1.15;;;9.20;99.90;;;;;;4886932;29;20234;-69
2023/03/20 06:03:47;;;;;;;2.40;2.20;;;9.20;99.90;;;;;;4877282;29;20211;-70
2023/03/20 06:06:14;;;;;;;1.77;1.67;;;9.20;99.90;;;;;;4887076;29;20355;-69
2023/03/20 06:08:41;;;;;;;2.47;1.55;;;9.20;99.90;;;;;;4878984;29;20231;-70
2023/03/20 06:11:10;;;;;;;4.88;3.05;;;9.30;99.90;;;;;;4879779;29;20283;-67
2023/03/20 06:13:37;;;;;;;1.98;0.68;;;9.30;99.90;;;;;;4876296;29;20212;-69
2023/03/20 06:16:05;;;;;;;1.45;1.45;;;9.30;99.90;;;;;;4878997;29;20849;-70
2023/03/20 06:18:32;;;;;;;1.95;1.75;;;9.30;99.90;;;;;;4885451;29;20246;-69
2023/03/20 06:20:59;;;;;;;1.00;1.00;;;9.40;99.90;;;;;;4892354;29;20239;-69
2023/03/20 06:23:26;;;;;;;7.82;1.00;;;9.40;99.90;;;;;;4887603;29;20212;-69
2023/03/20 06:25:52;;;;;;;1.95;1.50;;;9.40;99.90;;;;;;4887027;29;20215;-69
2023/03/20 06:28:20;;;;;;;0.90;0.90;;;9.50;99.90;;;;;;4889658;29;20223;-70
2023/03/20 06:30:47;;;;;;;0.40;0.40;;;9.50;99.90;;;;;;4885434;29;20264;-68
2023/03/20 06:33:14;;;;;;;1.40;1.10;;;9.50;99.90;;;;;;4888409;29;20203;-68
2023/03/20 06:35:41;;;;;;;0.35;0.35;;;9.50;99.90;;;;;;4879768;29;20215;-68
2023/03/20 06:38:08;;;;;;;0.57;0.57;;;9.50;99.90;;;;;;4881590;29;20227;-70
2023/03/20 06:40:35;;;;;;;1.13;0.95;;;9.50;99.90;;;;;;4882496;29;20228;-70
2023/03/20 06:43:01;;;;;;;1.77;0.40;;;9.50;99.90;;;;;;4883143;29;20272;-69
2023/03/20 06:45:29;;;;;;;0.80;0.80;;;9.60;99.90;;;;;;4882162;29;20689;-70
2023/03/20 06:47:56;;;;;;;0.75;0.75;;;9.60;99.90;;;;;;4879745;29;20258;-71
2023/03/20 06:50:23;;;;;;;2.05;0.90;;;9.60;99.90;;;;;;4882531;29;20716;-69
2023/03/20 06:52:50;;;;;;;1.40;1.00;;;9.60;99.90;;;;;;4887394;29;20212;-70
2023/03/20 06:55:16;;;;;;;0.50;0.50;;;9.60;99.90;;;;;;4877115;29;20698;-69
2023/03/20 06:57:44;;;;;;;1.88;1.77;;;9.60;99.90;;;;;;4876439;29;20208;-68
2023/03/20 07:00:13;;;;;;;1.83;0.80;;;9.60;99.90;;;;;;4873649;29;20317;-69
2023/03/20 07:02:42;;;;;;;1.05;1.05;;;9.50;99.90;;;;;;4875602;29;20219;-70
2023/03/20 07:05:09;;;;;;;1.10;1.10;;;9.50;99.90;;;;;;4878916;29;20899;-69
2023/03/20 07:07:36;;;;;;;0.73;0.73;;;9.50;99.90;;;;;;4879719;29;20215;-69
2023/03/20 07:10:06;;;;;;;1.80;1.52;;;9.50;99.90;;;;;;4874519;29;20231;-69
2023/03/20 07:12:33;;;;;;;1.52;0.90;;;9.50;99.90;;;;;;4872509;29;20223;-69
2023/03/20 07:15:00;;;;;;;2.50;1.10;;;9.60;99.90;;;;;;4885322;29;20264;-68
2023/03/20 07:17:26;;;;;;;0.82;0.75;;;9.60;99.90;;;;;;4890702;29;20212;-70
2023/03/20 07:19:54;;;;;;;1.45;1.15;;;9.60;99.90;;;;;;4880950;29;20314;-69
2023/03/20 07:22:23;;;;;;;2.22;0.95;;;9.60;99.90;;;;;;4879033;29;20314;-69
2023/03/20 07:24:50;;;;;;;1.50;1.40;;;9.60;99.90;;;;;;4884221;29;20236;-70
2023/03/20 07:27:17;;;;;;;1.65;1.55;;;9.60;99.90;;;;;;4880431;29;20212;-70
2023/03/20 07:29:45;;;;;;;1.40;1.35;;;9.60;99.90;;;;;;4892084;29;20223;-69
2023/03/20 07:32:11;;;;;;;1.92;1.77;;;9.60;99.90;;;;;;4895233;29;20252;-69
2023/03/20 07:34:38;;;;;;;1.95;1.15;;;9.60;99.90;;;;;;4878536;29;20219;-69
2023/03/20 07:37:06;;;;;;;0.80;0.80;;;9.60;99.90;;;;;;4885756;29;20216;-69
2023/03/20 07:39:33;;;;;;;2.60;1.95;;;9.70;99.90;;;;;;4876112;29;20215;-69
2023/03/20 07:42:00;;;;;;;1.40;1.40;;;9.70;99.90;;;;;;4877960;29;20254;-69
2023/03/20 07:44:26;;;;;;;1.30;1.00;;;9.70;99.90;;;;;;4880822;29;20207;-69
2023/03/20 07:46:57;;;;;;;4.57;1.77;;;9.80;99.90;;;;;;4880267;29;20223;-68
2023/03/20 07:49:25;;;;;;;2.75;2.38;;;9.80;99.90;;;;;;4877315;29;20705;-68
2023/03/20 07:51:53;;;;;;;1.92;1.83;;;9.80;99.90;;;;;;4884779;29;20705;-70
2023/03/20 07:54:21;;;;;;;4.90;2.25;;;9.80;99.90;;;;;;4868441;29;20212;-69
2023/03/20 07:56:48;;;;;;;1.80;1.77;;;9.80;99.90;;;;;;4882815;29;20680;-69
2023/03/20 07:59:15;;;;;;;3.10;2.75;;;9.80;99.90;;;;;;4886897;29;20298;-70
2023/03/20 08:01:42;;;;;;;1.00;1.00;;;9.80;99.90;;;;;;4886482;29;20275;-69
2023/03/20 08:04:10;;;;;;;1.92;1.77;;;9.80;99.90;;;;;;4877927;29;20670;-69
2023/03/20 08:06:38;;;;;;;4.20;3.30;;;9.80;99.90;;;;;;4876560;29;20212;-70
2023/03/20 08:09:05;;;;;;;1.00;1.00;;;9.80;99.90;;;;;;4872525;29;20572;-70
2023/03/20 08:11:33;;;;;;;3.10;1.95;;;9.80;99.90;;;;;;4884804;29;20235;-69
2023/03/20 08:14:00;;;;;;;2.45;2.28;;;9.80;99.90;;;;;;4899084;29;20240;-69
2023/03/20 08:16:27;;;;;;;1.90;1.80;;;9.80;99.90;;;;;;4879203;29;20222;-70
2023/03/20 08:18:59;;;;;;;2.15;1.98;;;9.80;99.90;;;;;;4881901;29;20344;-69
2023/03/20 08:21:27;;;;;;;3.58;1.73;;;9.70;99.90;;;;;;4874780;29;20227;-70
2023/03/20 08:23:53;;;;;;;1.90;1.80;;;9.70;99.90;;;;;;4877661;29;20219;-69
2023/03/20 08:26:20;;;;;;;2.53;2.30;;;9.70;99.90;;;;;;4896922;29;20208;-70
2023/03/20 08:28:49;;;;;;;1.73;1.63;;;9.70;99.90;;;;;;4896870;29;20239;-71
2023/03/20 08:31:16;;;;;;;2.38;2.28;;;9.70;99.90;;;;;;4887095;29;20728;-70
2023/03/20 08:33:43;;;;;;;5.50;4.00;;;9.70;99.90;;;;;;4888210;29;20650;-70
2023/03/20 08:36:10;;;;;;;3.45;1.98;;;9.70;99.90;;;;;;4886250;29;20216;-68
2023/03/20 08:38:37;;;;;;;2.83;1.88;;;9.70;99.90;;;;;;4886073;29;20206;-69
2023/03/20 08:41:06;;;;;;;5.47;1.55;;;9.60;99.90;;;;;;4886520;29;20227;-68
2023/03/20 08:43:32;;;;;;;4.93;2.55;;;9.60;99.90;;;;;;4890434;29;20219;-66
2023/03/20 08:46:00;;;;;;;4.97;2.67;;;9.50;99.90;;;;;;4893583;29;20207;-68
2023/03/20 08:48:27;;;;;;;2.03;1.92;;;9.50;99.90;;;;;;4886685;29;20207;-68
2023/03/20 08:50:54;;;;;;;2.13;1.75;;;9.50;99.90;;;;;;4876760;29;20244;-69
2023/03/20 08:53:21;;;;;;;4.07;2.78;;;9.50;99.90;;;;;;4878991;29;20212;-71
2023/03/20 08:55:48;;;;;;;3.22;2.15;;;9.60;99.90;;;;;;4886941;29;20214;-69
2023/03/20 08:58:15;;;;;;;3.35;3.00;;;9.60;99.90;;;;;;4896014;29;20637;-70
2023/03/20 09:00:42;;;;;;;1.95;1.85;;;9.50;99.90;;;;;;4884283;29;20235;-69
2023/03/20 09:03:14;;;;;;;7.57;3.35;;;9.50;99.90;;;;;;4877989;29;20216;-70
2023/03/20 09:05:41;;;;;;;6.10;2.10;;;9.60;99.90;;;;;;4891834;29;20358;-68
2023/03/20 09:08:07;;;;;;;1.80;1.60;;;9.60;99.90;;;;;;4877298;29;20219;-68
2023/03/20 09:10:34;;;;;;;2.28;1.70;;;9.60;99.90;;;;;;4876305;29;20615;-69
2023/03/20 09:13:01;;;;;;;2.92;2.70;;;9.60;99.90;;;;;;4886684;29;20218;-69
2023/03/20 09:15:28;;;;;;;8.88;1.42;;;9.60;99.90;;;;;;4875173;29;20208;-69
2023/03/20 09:17:55;;;;;;;4.53;4.13;;;9.60;99.90;;;;;;4874153;29;20224;-70
2023/03/20 09:20:23;;;;;;;2.97;2.00;;;9.70;99.90;;;;;;4884648;29;20199;-69
2023/03/20 09:22:50;;;;;;;4.30;2.95;;;9.70;99.90;;;;;;4876266;29;20219;-68
2023/03/20 09:25:17;;;;;;;4.32;2.70;;;9.80;99.90;;;;;;4873370;29;20219;-70
2023/03/20 09:27:44;;;;;;;5.55;4.50;;;9.80;99.90;;;;;;4882321;29;20218;-70
2023/03/20 09:30:12;;;;;;;2.22;2.10;;;9.90;99.90;;;;;;4875706;29;20239;-69
2023/03/20 09:32:39;;;;;;;2.00;1.95;;;9.90;99.90;;;;;;4876916;29;20735;-71
2023/03/20 09:35:06;;;;;;;5.07;2.17;;;9.90;99.90;;;;;;4877776;29;20665;-70
2023/03/20 09:37:35;;;;;;;5.35;3.28;;;9.90;99.90;;;;;;4882871;29;20208;-70
2023/03/20 09:40:02;;;;;;;3.35;2.05;;;9.90;99.90;;;;;;4892156;29;20243;-70
2023/03/20 09:42:38;;;;;;;2.10;1.95;;;9.90;99.90;;;;;;4875367;29;20686;-68
2023/03/20 09:45:11;;;;;;;2.53;2.30;;;9.90;99.90;;;;;;4876288;29;20222;-68
2023/03/20 09:47:46;;;;;;;3.85;3.28;;;9.90;99.90;;;;;;4892170;29;20222;-69
2023/03/20 09:50:24;;;;;;;2.22;2.13;;;9.90;99.90;;;;;;4885491;29;20223;-70
2023/03/20 09:52:59;;;;;;;3.20;1.98;;;9.90;99.90;;;;;;4879272;29;20226;-70
2023/03/20 09:55:32;;;;;;;4.10;3.67;;;9.90;99.90;;;;;;4877863;29;20219;-69
2023/03/20 09:58:04;;;;;;;2.35;2.08;;;9.90;99.90;;;;;;4883897;29;20227;-69
2023/03/20 10:00:34;;;;;;;3.00;2.80;;;9.90;99.90;;;;;;4882404;29;20200;-71
2023/03/20 10:03:03;;;;;;;3.70;2.75;;;10.10;99.90;;;;;;4878254;29;20351;-70
2023/03/20 10:05:37;;;;;;;3.17;2.05;;;10.20;99.90;;;;;;4878229;29;20338;-70
2023/03/20 10:08:10;;;;;;;3.50;3.30;;;10.20;99.90;;;;;;4886553;29;20208;-69
2023/03/20 10:10:49;;;;;;;3.10;3.00;;;10.20;99.90;;;;;;4906414;29;20271;-69
2023/03/20 10:13:48;;;;;;;2.03;1.92;;;10.20;99.90;;;;;;4892613;29;20302;-70
2023/03/20 10:16:22;;;;;;;1.15;1.15;;;10.20;99.90;;;;;;4899806;29;20220;-69
2023/03/20 10:18:54;;;;;;;3.20;2.90;;;10.20;99.90;;;;;;4895591;29;20212;-69
2023/03/20 10:21:27;;;;;;;2.65;2.20;;;10.20;99.90;;;;;;4890888;29;20256;-71
2023/03/20 10:24:00;;;;;;;2.05;1.95;;;10.20;99.90;;;;;;4891456;29;20264;-70
2023/03/20 10:26:30;;;;;;;2.28;2.28;;;10.20;99.90;;;;;;4896272;29;20212;-68
2023/03/20 10:28:59;;;;;;;3.65;3.35;;;10.20;99.90;;;;;;4893910;29;20216;-71
2023/03/20 10:31:37;;;;;;;2.08;1.95;;;10.20;99.90;;;;;;4913312;29;20238;-69
2023/03/20 10:34:18;;;;;;;1.83;1.42;;;10.20;99.90;;;;;;4892972;29;20216;-69
2023/03/20 10:37:00;;;;;;;1.15;1.15;;;10.20;99.90;;;;;;4878245;29;20211;-69
2023/03/20 10:39:40;;;;;;;2.05;2.05;;;10.20;99.90;;;;;;4883503;29;20215;-68
2023/03/20 10:42:15;;;;;;;4.90;2.78;;;10.20;99.90;;;;;;4880828;29;20226;-69
2023/03/20 10:44:46;;;;;;;2.78;2.67;;;10.20;99.90;;;;;;4880027;29;20222;-70
2023/03/20 10:47:16;;;;;;;5.10;1.95;;;10.20;99.90;;;;;;4877672;29;20303;-69
2023/03/20 10:49:47;;;;;;;2.10;2.00;;;10.20;99.90;;;;;;4884757;29;20654;-68
2023/03/20 10:52:17;;;;;;;3.28;2.85;;;10.10;99.90;;;;;;4883402;29;20234;-68
2023/03/20 10:54:49;;;;;;;3.88;3.60;;;10.10;99.90;;;;;;4892267;29;20216;-69
2023/03/20 10:57:22;;;;;;;4.15;2.50;;;10.10;99.90;;;;;;4887876;29;20207;-69
2023/03/20 10:59:51;;;;;;;7.55;3.47;;;10.20;99.90;;;;;;4875083;29;20219;-71
2023/03/20 11:02:20;;;;;;;5.60;2.42;;;10.20;99.90;;;;;;4888959;29;20243;-70
2023/03/20 11:04:47;;;;;;;3.97;2.67;;;10.30;99.90;;;;;;4903420;29;20288;-69
2023/03/20 11:07:23;;;;;;;3.42;3.33;;;10.30;99.90;;;;;;4890273;29;20215;-69
2023/03/20 11:10:09;;;;;;;3.00;2.75;;;10.40;99.90;;;;;;4888613;29;20208;-68
2023/03/20 11:12:38;;;;;;;2.22;1.83;;;10.50;99.90;;;;;;4881193;29;20645;-69
2023/03/20 11:15:19;;;;;;;2.58;2.20;;;10.60;99.90;;;;;;4881840;29;20216;-69
2023/03/20 11:17:53;;;;;;;2.85;2.38;;;10.70;99.90;;;;;;4879527;29;20254;-67
2023/03/20 11:20:20;;;;;;;4.25;1.70;;;10.80;99.90;;;;;;4873968;29;20588;-69
2023/03/20 11:22:47;;;;;;;4.82;2.85;;;10.90;99.90;;;;;;4879841;29;20272;-69
2023/03/20 11:25:28;;;;;;;3.50;3.28;;;10.90;99.90;;;;;;4876768;29;20671;-69
2023/03/20 11:27:55;;;;;;;1.80;1.67;;;10.90;99.90;;;;;;4885859;29;20217;-69
2023/03/20 11:30:23;;;;;;;3.33;2.47;;;10.90;99.90;;;;;;4884328;29;20856;-70
2023/03/20 11:32:54;;;;;;;2.05;1.95;;;10.80;99.90;;;;;;4887128;29;20212;-70
2023/03/20 11:35:27;;;;;;;3.55;2.70;;;10.70;99.90;;;;;;4880706;29;20212;-69
2023/03/20 11:37:55;;;;;;;2.22;2.10;;;10.60;99.90;;;;;;4898130;23;21451;-69
2023/03/20 11:40:25;;;;;;;4.28;2.05;;;10.60;99.90;;;;;;4876148;29;20215;-70
2023/03/20 11:42:55;;;;;;;2.38;2.17;;;10.50;99.90;;;;;;4889889;29;20358;-69
2023/03/20 11:45:22;;;;;;;3.05;2.85;;;10.50;99.90;;;;;;4885519;29;20304;-71
2023/03/20 11:47:51;;;;;;;2.53;2.15;;;10.60;99.90;;;;;;4888687;29;20537;-66
2023/03/20 11:50:32;;;;;;;4.53;4.13;;;10.70;99.90;;;;;;4886056;29;20215;-70
2023/03/20 11:53:01;;;;;;;2.33;2.15;;;10.80;99.90;;;;;;4903971;29;20242;-70
2023/03/20 11:55:31;;;;;;;1.97;1.93;;;10.80;99.90;;;;;;4887027;29;20216;-69
2023/03/20 11:57:59;;;;;;;3.00;2.80;;;10.90;99.90;;;;;;4888654;29;20503;-71
2023/03/20 12:00:29;;;;;;;2.37;2.27;;;11.00;99.90;;;;;;4889590;29;20655;-70
2023/03/20 12:02:56;;;;;;;2.97;2.87;;;11.00;99.90;;;;;;4888787;29;20478;-69
2023/03/20 12:05:32;;;;;;;1.63;1.63;;;11.10;99.90;;;;;;4888756;29;20464;-69
2023/03/20 12:08:03;;;;;;;1.97;1.87;;;11.30;99.90;;;;;;4895019;29;20612;-70
2023/03/20 12:10:35;;;;;;;3.13;2.77;;;11.40;99.90;;;;;;4892761;29;20476;-70
2023/03/20 12:13:06;;;;;;;2.77;2.10;;;11.50;99.90;;;;;;4889598;29;20468;-69
2023/03/20 12:15:36;;;;;;;1.43;1.40;;;11.60;99.90;;;;;;4889835;29;20480;-70
2023/03/20 12:18:06;;;;;;;2.37;2.27;;;11.70;99.90;;;;;;4902196;29;20606;-70
2023/03/20 12:20:36;;;;;;;3.50;3.00;;;11.60;99.90;;;;;;4892870;29;20527;-70
2023/03/20 12:23:12;;;;;;;2.57;2.43;;;11.70;99.90;;;;;;4891960;29;20482;-70
2023/03/20 12:25:45;;;;;;;5.40;2.87;;;11.70;99.90;;;;;;4894183;29;20484;-71
2023/03/20 12:28:17;;;;;;;10.63;3.00;;;11.80;99.90;;;;;;4895297;29;20497;-69
2023/03/20 12:31:01;;;;;;;2.23;2.13;;;11.80;99.90;;;;;;4898279;29;21104;-71
2023/03/20 12:33:40;;;;;;;4.87;2.27;;;11.70;99.90;;;;;;4886281;29;20556;-69
2023/03/20 12:36:16;;;;;;;2.03;1.93;;;11.70;99.90;;;;;;4892873;29;20467;-70
2023/03/20 12:38:44;;;;;;;2.30;2.10;;;11.70;99.90;;;;;;4896218;29;20498;-71
2023/03/20 12:41:15;;;;;;;3.27;2.97;;;11.60;99.90;;;;;;4885533;29;20464;-69
2023/03/20 12:44:14;;;;;;;2.93;2.73;;;11.60;99.90;;;;;;4890831;29;20478;-68
2023/03/20 12:46:46;;;;;;;1.97;1.87;;;11.70;99.90;;;;;;4889236;29;20465;-69
2023/03/20 12:49:29;;;;;;;3.77;1.90;;;11.80;99.90;;;;;;4889003;29;20846;-69
2023/03/20 12:52:09;;;;;;;4.17;2.83;;;11.60;99.90;;;;;;4892720;29;20544;-66
2023/03/20 12:54:57;;;;;;;2.87;2.70;;;11.50;99.90;;;;;;4878914;29;20472;-69
2023/03/20 12:57:32;;;;;;;3.93;2.57;;;11.30;99.90;;;;;;4893284;29;20466;-70
2023/03/20 13:00:27;;;;;;;2.30;1.80;;;11.20;99.90;;;;;;4901087;29;20484;-71
2023/03/20 13:03:13;;;;;;;5.37;3.50;;;11.20;99.90;;;;;;4888455;29;21126;-68
2023/03/20 13:05:49;;;;;;;2.08;1.92;;;11.30;99.90;;;;;;4883103;29;20471;-69
2023/03/20 13:08:52;;;;;;;3.13;2.40;;;11.30;99.90;;;;;;4889827;29;20241;-70
2023/03/20 13:11:28;;;;;;;10.15;5.90;;;11.30;99.90;;;;;;4904404;29;21123;-69
2023/03/20 13:14:01;;;;;;;8.60;4.40;;;11.30;99.90;;;;;;4889961;29;20222;-67
2023/03/20 13:16:38;;;;;;;2.67;2.57;;;11.30;99.90;;;;;;4880907;29;20834;-69
2023/03/20 13:19:11;;;;;;;3.40;3.17;;;11.30;99.90;;;;;;4894648;29;20509;-68
2023/03/20 13:21:44;;;;;;;2.50;2.30;;;11.30;99.90;;;;;;4889012;29;20808;-71
2023/03/20 13:24:30;;;;;;;2.13;2.00;;;11.20;99.90;;;;;;4882245;29;20231;-68
2023/03/20 13:27:04;;;;;;;4.53;3.00;;;11.20;99.90;;;;;;4895394;29;20476;-69
2023/03/20 13:29:44;;;;;;;2.53;2.42;;;11.20;99.90;;;;;;4890959;29;20245;-68
2023/03/20 13:32:21;;;;;;;7.15;2.70;;;11.20;99.90;;;;;;4880181;29;20314;-70
2023/03/20 13:35:01;;;;;;;3.05;2.85;;;11.30;99.90;;;;;;4894826;29;20215;-70
2023/03/20 13:37:34;;;;;;;2.72;2.42;;;11.30;99.90;;;;;;4884979;29;20472;-70
2023/03/20 13:43:06;;;;;;;5.53;4.03;;;11.60;99.90;;;;;;4887312;29;20552;-70
2023/03/20 13:45:37;;;;;;;3.63;2.50;;;11.70;99.90;;;;;;4892970;29;20475;-70
2023/03/20 13:48:26;;;;;;;3.07;2.77;;;11.80;99.90;;;;;;4904061;29;20495;-71
2023/03/20 13:51:00;;;;;;;4.10;2.33;;;11.90;99.90;;;;;;4898355;29;20473;-71
2023/03/20 13:53:34;;;;;;;1.90;1.80;;;12.10;99.90;;;;;;4893480;29;20556;-70
2023/03/20 13:56:10;;;;;;;4.37;4.07;;;12.20;99.90;;;;;;4888632;29;20467;-70
2023/03/20 13:59:02;;;;;;;3.20;1.67;;;12.20;99.90;;;;;;4894471;29;20482;-68
2023/03/20 14:01:39;;;;;;;2.93;2.83;;;12.20;99.90;;;;;;4896584;29;20460;-70
2023/03/20 14:04:13;;;;;;;2.40;2.20;;;12.20;99.90;;;;;;4887373;29;20477;-71
2023/03/20 14:06:51;;;;;;;1.60;1.50;;;12.30;99.90;;;;;;4900495;29;20493;-70
2023/03/20 14:09:33;;;;;;;1.57;1.47;;;12.30;99.90;;;;;;4894581;29;20497;-70
2023/03/20 14:12:06;;;;;;;1.87;1.50;;;12.30;99.90;;;;;;4888977;29;21007;-69
2023/03/20 14:14:40;;;;;;;2.40;2.30;;;12.20;99.90;;;;;;4889415;29;20919;-70
2023/03/20 14:17:14;;;;;;;2.27;2.17;;;12.20;99.90;;;;;;4892852;29;20463;-70
2023/03/20 14:19:42;;;;;;;4.47;2.00;;;12.20;99.90;;;;;;4887899;29;20495;-71
2023/03/20 14:22:15;;;;;;;3.03;2.03;;;12.20;99.90;;;;;;4894953;29;20559;-68
2023/03/20 14:24:50;;;;;;;3.13;1.90;;;12.10;99.90;;;;;;4890253;29;20478;-71
2023/03/20 14:27:20;;;;;;;1.87;1.73;;;12.00;99.90;;;;;;4909669;29;20812;-68
2023/03/20 14:29:47;;;;;;;2.47;2.20;;;12.00;99.90;;;;;;4889945;29;20579;-69
2023/03/20 14:32:35;;;;;;;2.57;1.13;;;12.00;99.90;;;;;;4890630;29;20487;-70
2023/03/20 14:35:24;;;;;;;1.50;1.40;;;11.90;99.90;;;;;;4895580;29;20535;-69
2023/03/20 14:38:10;;;;;;;2.03;1.90;;;11.90;99.90;;;;;;4907316;29;20475;-69
2023/03/20 14:40:43;;;;;;;2.73;2.17;;;12.00;99.90;;;;;;4900056;29;20470;-68
2023/03/20 14:43:20;;;;;;;1.20;1.20;;;11.90;99.90;;;;;;4898233;29;20569;-69
2023/03/20 14:45:54;;;;;;;1.53;1.30;;;11.90;99.90;;;;;;4896660;29;20471;-69
2023/03/20 14:48:31;;;;;;;3.37;1.20;;;11.90;99.90;;;;;;4905977;29;20521;-70
2023/03/20 14:51:14;;;;;;;1.83;1.73;;;11.80;99.90;;;;;;4900212;29;20538;-69
2023/03/20 14:53:41;;;;;;;1.93;1.93;;;11.80;99.90;;;;;;4892362;29;20218;-70
2023/03/20 14:56:10;;;;;;;5.37;2.13;;;11.80;99.90;;;;;;4904223;29;20456;-71
2023/03/20 14:58:53;;;;;;;1.77;1.67;;;11.80;99.90;;;;;;4919255;29;20497;-70
2023/03/20 15:01:46;;;;;;;2.13;1.98;;;11.80;99.90;;;;;;4891875;29;20466;-69
2023/03/20 15:04:26;;;;;;;2.37;1.70;;;11.70;99.90;;;;;;4897118;29;20676;-70
2023/03/20 15:06:57;;;;;;;3.13;1.70;;;11.70;99.90;;;;;;4910257;29;20484;-71
2023/03/20 15:09:27;;;;;;;3.42;2.00;;;11.60;99.90;;;;;;4892309;29;20494;-70
2023/03/20 15:11:58;;;;;;;3.25;1.92;;;11.60;99.90;;;;;;4884690;29;20239;-69
2023/03/20 15:14:27;;;;;;;3.13;2.93;;;11.60;99.90;;;;;;4885688;29;20207;-71
2023/03/20 15:16:58;;;;;;;2.33;1.98;;;11.50;99.90;;;;;;4893848;29;20972;-70
2023/03/20 15:19:26;;;;;;;8.85;2.45;;;11.50;99.90;;;;;;4882146;29;20231;-70
2023/03/20 15:21:54;;;;;;;3.05;2.17;;;11.40;99.90;;;;;;4890335;29;20663;-70
2023/03/20 15:24:22;;;;;;;2.42;2.05;;;11.40;99.90;;;;;;4885494;29;20267;-71
2023/03/20 15:26:53;;;;;;;4.82;3.00;;;11.30;99.90;;;;;;4897051;29;20235;-69
2023/03/20 15:29:21;;;;;;;2.83;2.72;;;11.30;99.90;;;;;;4894008;29;20242;-69
2023/03/20 15:31:53;;;;;;;2.22;2.00;;;11.30;99.90;;;;;;4909635;29;20304;-70
2023/03/20 15:34:23;;;;;;;4.70;2.20;;;11.30;99.90;;;;;;4906891;29;20206;-70
2023/03/20 15:36:52;;;;;;;3.42;1.90;;;11.30;99.90;;;;;;4909801;29;20196;-69
2023/03/20 15:39:22;;;;;;;2.60;2.40;;;11.30;99.90;;;;;;4901274;29;20235;-70
2023/03/20 15:41:52;;;;;;;2.60;2.40;;;11.30;99.90;;;;;;4888835;29;20212;-68
2023/03/20 15:44:23;;;;;;;9.33;2.40;;;11.20;99.90;;;;;;4892952;29;20560;-70
2023/03/20 15:46:52;;;;;;;2.30;2.20;;;11.20;99.90;;;;;;4896568;29;20471;-69
2023/03/20 15:49:19;;;;;;;3.22;1.98;;;11.20;99.90;;;;;;4908382;29;20502;-68
2023/03/20 15:51:46;;;;;;;2.72;2.13;;;11.20;99.90;;;;;;4895692;29;20239;-69
2023/03/20 15:54:16;;;;;;;3.40;3.15;;;11.20;99.90;;;;;;4888412;29;20212;-68
2023/03/20 15:56:45;;;;;;;2.77;2.57;;;11.10;99.90;;;;;;4898321;29;20219;-67
2023/03/20 15:59:15;;;;;;;2.17;2.08;;;11.10;99.90;;;;;;4907204;29;20534;-68
2023/03/20 16:01:42;;;;;;;8.48;3.47;;;11.10;99.90;;;;;;4905368;29;20215;-67
2023/03/20 16:04:13;;;;;;;6.85;2.50;;;11.10;99.90;;;;;;4892647;29;20215;-68
2023/03/20 16:06:47;;;;;;;1.90;1.80;;;11.10;99.90;;;;;;4889408;29;20211;-70
2023/03/20 16:09:17;;;;;;;4.45;3.22;;;11.10;99.90;;;;;;4901528;29;20754;-69
2023/03/20 16:11:46;;;;;;;2.50;2.30;;;11.10;99.90;;;;;;4909234;29;20207;-71
2023/03/20 16:14:16;;;;;;;2.47;2.15;;;11.00;99.90;;;;;;4887457;29;20207;-72
2023/03/20 16:16:46;;;;;;;2.25;2.05;;;11.00;99.90;;;;;;4904552;29;20682;-70
2023/03/20 16:19:14;;;;;;;1.73;1.65;;;11.00;99.90;;;;;;4887535;29;20228;-71
2023/03/20 16:21:46;;;;;;;2.58;2.38;;;11.00;99.90;;;;;;4900842;29;20207;-70
2023/03/20 16:24:19;;;;;;;2.95;2.65;;;11.00;99.90;;;;;;4895811;29;20216;-70
2023/03/20 16:26:50;;;;;;;2.00;1.85;;;11.00;99.90;;;;;;4896352;29;20204;-71
2023/03/20 16:29:20;;;;;;;2.45;1.73;;;11.00;99.90;;;;;;4887173;29;20259;-70
2023/03/20 16:31:53;;;;;;;2.28;2.05;;;11.00;99.90;;;;;;4887345;29;20214;-71
2023/03/20 16:34:23;;;;;;;5.72;2.70;;;11.00;99.90;;;;;;4902611;29;20199;-71
2023/03/20 16:36:56;;;;;;;2.17;2.08;;;11.00;99.90;;;;;;4892864;29;20211;-70
2023/03/20 16:39:27;;;;;;;2.90;2.00;;;11.00;99.90;;;;;;4896598;29;20914;-70
2023/03/20 16:42:08;;;;;;;3.10;2.63;;;11.00;99.90;;;;;;4898077;29;20230;-69
2023/03/20 16:44:36;;;;;;;2.78;2.13;;;11.00;99.90;;;;;;4894112;29;20284;-69
2023/03/20 16:47:15;;;;;;;5.53;3.75;;;11.00;99.90;;;;;;4887878;29;20626;-70
2023/03/20 16:50:15;;;;;;;3.67;3.10;;;11.00;99.90;;;;;;4887800;29;20234;-70
2023/03/20 16:52:46;;;;;;;15.27;4.13;;;11.00;99.90;;;;;;4889225;29;20207;-70
2023/03/20 16:55:18;;;;;;;2.50;2.35;;;10.90;99.90;;;;;;4878191;29;20583;-70
2023/03/20 16:57:49;;;;;;;2.33;2.15;;;10.90;99.90;;;;;;4898854;29;20210;-69
2023/03/20 17:00:23;;;;;;;6.22;2.65;;;10.90;99.90;;;;;;4909459;29;20214;-70
2023/03/20 17:02:52;;;;;;;1.98;1.98;;;10.90;99.90;;;;;;4899336;29;20568;-71
2023/03/20 17:05:21;;;;;;;2.13;2.03;;;10.90;99.90;;;;;;4902878;29;20219;-69
2023/03/20 17:07:51;;;;;;;6.10;2.78;;;10.90;99.90;;;;;;4896635;29;20566;-70
2023/03/20 17:10:23;;;;;;;2.92;2.78;;;10.80;99.90;;;;;;4893031;29;20744;-70
2023/03/20 17:12:51;;;;;;;3.50;3.30;;;10.80;99.90;;;;;;4888302;29;20243;-71
2023/03/20 17:15:20;;;;;;;8.05;3.10;;;10.80;99.90;;;;;;4903486;29;20203;-70
2023/03/20 17:17:47;;;;;;;3.83;2.97;;;10.80;99.90;;;;;;4882148;29;20208;-70
2023/03/20 17:20:20;;;;;;;3.25;2.92;;;10.70;99.90;;;;;;4898801;29;20214;-69
2023/03/20 17:22:47;;;;;;;3.72;2.65;;;10.70;99.90;;;;;;4907246;29;20672;-70
2023/03/20 17:25:14;;;;;;;3.72;2.60;;;10.70;99.90;;;;;;4890549;29;20220;-70
2023/03/20 17:27:42;;;;;;;2.83;2.45;;;10.60;99.90;;;;;;4902629;29;20215;-69
2023/03/20 17:30:17;;;;;;;11.50;4.32;;;10.60;99.90;;;;;;4891894;29;20222;-66
2023/03/20 17:32:44;;;;;;;11.00;2.45;;;10.60;99.90;;;;;;4892381;29;20230;-70
2023/03/20 17:35:11;;;;;;;2.10;2.03;;;10.60;99.90;;;;;;4888526;29;20723;-70
2023/03/20 17:37:39;;;;;;;2.28;2.08;;;10.50;99.90;;;;;;4894826;29;20226;-68
2023/03/20 17:40:08;;;;;;;8.25;2.45;;;10.50;99.90;;;;;;4898000;29;20674;-70
2023/03/20 17:42:38;;;;;;;3.47;2.55;;;10.50;99.90;;;;;;4885884;29;20206;-69
2023/03/20 17:45:07;;;;;;;1.77;1.67;;;10.40;99.90;;;;;;4902165;29;20287;-70
2023/03/20 17:47:34;;;;;;;2.20;2.00;;;10.40;99.90;;;;;;4897644;29;20587;-69
2023/03/20 17:50:00;;;;;;;1.65;1.65;;;10.40;99.90;;;;;;4891670;29;20357;-69
2023/03/20 17:52:28;;;;;;;2.60;2.40;;;10.40;99.90;;;;;;4893087;29;20230;-68
2023/03/20 17:54:55;;;;;;;1.38;1.27;;;10.30;99.90;;;;;;4893954;29;20211;-68
2023/03/20 17:57:26;;;;;;;2.60;1.90;;;10.30;99.90;;;;;;4902438;29;20221;-68
2023/03/20 17:59:52;;;;;;;5.65;2.88;;;10.30;99.90;;;;;;4894436;29;20242;-68
2023/03/20 18:02:20;;;;;;;1.83;1.73;;;10.30;99.90;;;;;;4896386;29;20216;-68
2023/03/20 18:04:48;;;;;;;5.60;2.13;;;10.30;99.90;;;;;;4880832;29;20212;-70
2023/03/20 18:07:16;;;;;;;1.60;1.60;;;10.30;99.90;;;;;;4894526;29;20295;-70
2023/03/20 18:09:45;;;;;;;9.98;5.07;;;10.20;99.90;;;;;;4884777;29;20616;-68
2023/03/20 18:12:14;;;;;;;2.97;2.88;;;10.20;99.90;;;;;;4892754;29;20207;-68
2023/03/20 18:14:41;;;;;;;2.50;2.30;;;10.20;99.90;;;;;;4891618;29;20237;-69